Shoshone, California Weather observations

Data are for observation ending at time listed.
 Day   Time    Ave.   Ave.  Ave.  Vector   Max.   Stn.    Total    Solar   Ave.  
  of    of     Air    Rel.  Wind   Wind    Wind   Baro.  Precip.   Rad.    Soil  
Year   Day     Temp.  Hum.  Speed  Dir.    Gust   Pres.                    Temp. 
2017   (PST)    F      %     mph   deg.    mph     mb.     in.     W/m2     F   
------------------------------------------------------------------------------
  35   21:00   49.9    69    1.3    22      5.8    970     0.00       1    59.6
  35   22:00   47.3    74    0.4    55      2.4    970     0.00       1    58.4
  35   23:00   45.6    76    0.1    49      1.6    970     0.00       1    57.3
  36    0:00   43.5    77    0.3   324      2.9    970     0.00       1    56.3
  36    1:00   40.0    82    0.5   318      2.3    970     0.00       1    55.4
  36    2:00   37.1    85    0.1    32      1.8    970     0.00       1    54.6
  36    3:00   34.7    87    0.3    30      2.7    970     0.00       1    53.7
  36    4:00   32.1    88    0.5    64      2.5    970     0.00       0    52.9
  36    5:00   29.7    89    0.6    61      2.8    970     0.00       1    52.1
  36    6:00   27.6    90    0.7    61      2.6    970     0.00       1    51.4
  36    7:00   25.7    91    0.8   358      2.9    970     0.00       5    50.7
  36    8:00   26.0    90    0.9    80      5.3    971     0.00     123    50.2
  36    9:00   37.6    76    1.7   261      6.6    971     0.00     303    51.1
  36   10:00   47.8    67    2.7   270      6.5    971     0.00     399    53.4
  36   11:00   54.6    57    2.1   272      4.9    970     0.00     460    55.9
  36   12:00   58.7    51    2.5   272      5.5    969     0.00     502    58.4
  36   13:00   62.5    42    2.1   268      5.7    967     0.00     448    60.4
  36   14:00   65.0    36    1.6   201      7.7    966     0.00     377    61.9
  36   15:00   64.7    39    2.1   156      6.9    966     0.00     216    62.7
  36   16:00   63.9    39    3.8   169      7.8    966     0.00     146    62.6
  36   17:00   62.7    43    0.9   161      4.1    966     0.00      42    62.2
  36   18:00   60.4    48    1.0   146      3.7    966     0.00       2    61.3
  36   19:00   58.3    51    1.3   143      5.1    966     0.00       0    60.3
  36   20:00   59.1    45    1.8   151      6.6    965     0.00       0    59.3

Return to Shoshone, California graphs page.


Western Regional Climate Center,wrcc@dri.edu